MAPA DE AEROPUERTO

INFORMACIÓN METAR y TAF

METAR FOR VNKT
ADDS - METARS form results

(1009 UTC 23 October 2021)
Data provider http://aviationweather.gov/metar/data/
 
METAR text: VNKT 230950Z 21011KT 6000 FEW015 FEW025TCU SCT030 BKN100 22/17 Q1019 NOSIG
Conditions at: VNKT (KATHMANDU INTL A, NP) observed 0950 UTC 23 October 2021
Temperature: 22.0°C (72°F)
Dewpoint: 17.0°C (63°F) [RH = 73%]
Pressure (altimeter): 30.09 inches Hg (1019.0 mb)
Winds: from the SSW (210 degrees) at 13 MPH (11 knots; 5.7 m/s)
Visibility: 4 miles ( 6 km)
Ceiling: 10000 feet AGL
Clouds: few clouds at 1500 feet AGL
few clouds at 2500 feet AGL
scattered clouds at 3000 feet AGL
broken clouds at 10000 feet AGL
Weather: no significant weather observed at this time

METAR text: VNKT 230920Z 22012KT 7000 FEW015 FEW025TCU SCT030 BKN100 22/17 Q1019 NOSIG
Conditions at: VNKT (KATHMANDU INTL A, NP) observed 0920 UTC 23 October 2021
Temperature: 22.0°C (72°F)
Dewpoint: 17.0°C (63°F) [RH = 73%]
Pressure (altimeter): 30.09 inches Hg (1019.0 mb)
Winds: from the SW (220 degrees) at 14 MPH (12 knots; 6.2 m/s)
Visibility: 4 miles ( 7 km)
Ceiling: 10000 feet AGL
Clouds: few clouds at 1500 feet AGL
few clouds at 2500 feet AGL
scattered clouds at 3000 feet AGL
broken clouds at 10000 feet AGL
Weather: no significant weather observed at this time